sensor_id;sensor_type;location;lat;lon;timestamp;temperature;humidity
1351;DHT22;669;50.206;9.998;2023-06-26T00:01:23;16.40;93.30
1351;DHT22;669;50.206;9.998;2023-06-26T00:03:52;16.40;92.00
1351;DHT22;669;50.206;9.998;2023-06-26T00:06:20;16.20;91.90
1351;DHT22;669;50.206;9.998;2023-06-26T00:08:51;16.00;92.00
1351;DHT22;669;50.206;9.998;2023-06-26T00:11:19;15.80;93.50
1351;DHT22;669;50.206;9.998;2023-06-26T00:13:47;15.70;93.60
1351;DHT22;669;50.206;9.998;2023-06-26T00:16:15;15.60;94.40
1351;DHT22;669;50.206;9.998;2023-06-26T00:18:43;15.70;94.90
1351;DHT22;669;50.206;9.998;2023-06-26T00:21:12;15.80;94.60
1351;DHT22;669;50.206;9.998;2023-06-26T00:23:40;15.90;94.40
1351;DHT22;669;50.206;9.998;2023-06-26T00:26:08;16.00;94.20
1351;DHT22;669;50.206;9.998;2023-06-26T00:28:37;16.10;93.90
1351;DHT22;669;50.206;9.998;2023-06-26T00:31:04;16.10;92.90
1351;DHT22;669;50.206;9.998;2023-06-26T00:33:32;16.10;92.90
1351;DHT22;669;50.206;9.998;2023-06-26T00:36:00;16.00;92.90
1351;DHT22;669;50.206;9.998;2023-06-26T00:38:29;16.00;92.60
1351;DHT22;669;50.206;9.998;2023-06-26T00:40:57;15.90;93.30
1351;DHT22;669;50.206;9.998;2023-06-26T00:43:25;15.90;93.70
1351;DHT22;669;50.206;9.998;2023-06-26T00:45:53;15.90;94.40
1351;DHT22;669;50.206;9.998;2023-06-26T00:48:21;16.00;94.00
1351;DHT22;669;50.206;9.998;2023-06-26T00:50:49;16.10;93.40
1351;DHT22;669;50.206;9.998;2023-06-26T00:53:17;16.10;92.90
1351;DHT22;669;50.206;9.998;2023-06-26T00:55:47;16.00;91.20
1351;DHT22;669;50.206;9.998;2023-06-26T00:58:15;15.90;92.70
1351;DHT22;669;50.206;9.998;2023-06-26T01:00:43;15.80;93.20
1351;DHT22;669;50.206;9.998;2023-06-26T01:03:12;15.80;93.80
1351;DHT22;669;50.206;9.998;2023-06-26T01:05:40;15.80;94.00
1351;DHT22;669;50.206;9.998;2023-06-26T01:08:13;15.80;94.30
1351;DHT22;669;50.206;9.998;2023-06-26T01:10:41;15.70;95.00
1351;DHT22;669;50.206;9.998;2023-06-26T01:13:11;15.70;94.80
1351;DHT22;669;50.206;9.998;2023-06-26T01:15:41;15.70;95.40
1351;DHT22;669;50.206;9.998;2023-06-26T01:18:09;15.80;95.00
1351;DHT22;669;50.206;9.998;2023-06-26T01:20:38;15.90;94.50
1351;DHT22;669;50.206;9.998;2023-06-26T01:23:14;15.90;93.40
1351;DHT22;669;50.206;9.998;2023-06-26T01:25:55;15.90;93.80
1351;DHT22;669;50.206;9.998;2023-06-26T01:28:28;15.90;93.80
1351;DHT22;669;50.206;9.998;2023-06-26T01:30:56;16.00;93.70
1351;DHT22;669;50.206;9.998;2023-06-26T01:33:25;15.90;92.40
1351;DHT22;669;50.206;9.998;2023-06-26T01:35:53;15.90;92.00
1351;DHT22;669;50.206;9.998;2023-06-26T01:38:22;15.70;92.70
1351;DHT22;669;50.206;9.998;2023-06-26T01:40:50;15.70;93.40
1351;DHT22;669;50.206;9.998;2023-06-26T01:43:24;15.70;92.90
1351;DHT22;669;50.206;9.998;2023-06-26T01:45:59;15.60;92.60
1351;DHT22;669;50.206;9.998;2023-06-26T01:48:34;15.60;93.10
1351;DHT22;669;50.206;9.998;2023-06-26T01:51:03;15.60;93.00
1351;DHT22;669;50.206;9.998;2023-06-26T01:53:35;15.50;92.70
1351;DHT22;669;50.206;9.998;2023-06-26T01:56:07;15.30;92.90
1351;DHT22;669;50.206;9.998;2023-06-26T01:58:37;15.20;93.20
1351;DHT22;669;50.206;9.998;2023-06-26T02:01:09;15.10;92.90
1351;DHT22;669;50.206;9.998;2023-06-26T02:03:37;15.00;92.90
1351;DHT22;669;50.206;9.998;2023-06-26T02:06:05;14.90;93.40
1351;DHT22;669;50.206;9.998;2023-06-26T02:08:33;14.80;93.60
1351;DHT22;669;50.206;9.998;2023-06-26T02:11:01;14.80;95.00
1351;DHT22;669;50.206;9.998;2023-06-26T02:13:29;14.80;95.20
1351;DHT22;669;50.206;9.998;2023-06-26T02:15:57;14.80;95.40
1351;DHT22;669;50.206;9.998;2023-06-26T02:18:26;14.80;95.80
1351;DHT22;669;50.206;9.998;2023-06-26T02:20:54;14.90;95.90
1351;DHT22;669;50.206;9.998;2023-06-26T02:23:22;15.00;96.00
1351;DHT22;669;50.206;9.998;2023-06-26T02:25:50;15.00;96.30
1351;DHT22;669;50.206;9.998;2023-06-26T02:28:18;15.10;96.70
1351;DHT22;669;50.206;9.998;2023-06-26T02:30:46;15.10;96.10
1351;DHT22;669;50.206;9.998;2023-06-26T02:33:13;15.20;95.70
1351;DHT22;669;50.206;9.998;2023-06-26T02:35:43;15.20;94.60
1351;DHT22;669;50.206;9.998;2023-06-26T02:38:11;15.20;93.50
1351;DHT22;669;50.206;9.998;2023-06-26T02:40:39;15.10;93.60
1351;DHT22;669;50.206;9.998;2023-06-26T02:43:07;15.10;94.10
1351;DHT22;669;50.206;9.998;2023-06-26T02:45:35;15.10;94.50
1351;DHT22;669;50.206;9.998;2023-06-26T02:48:04;15.10;95.20
1351;DHT22;669;50.206;9.998;2023-06-26T02:50:32;15.00;95.70
1351;DHT22;669;50.206;9.998;2023-06-26T02:53:01;15.00;95.50
1351;DHT22;669;50.206;9.998;2023-06-26T02:55:29;15.00;93.90
1351;DHT22;669;50.206;9.998;2023-06-26T02:57:57;14.80;92.40
1351;DHT22;669;50.206;9.998;2023-06-26T03:00:25;14.60;94.20
1351;DHT22;669;50.206;9.998;2023-06-26T03:02:53;14.50;94.70
1351;DHT22;669;50.206;9.998;2023-06-26T03:05:21;14.50;95.20
1351;DHT22;669;50.206;9.998;2023-06-26T03:07:50;14.60;95.40
1351;DHT22;669;50.206;9.998;2023-06-26T03:10:19;14.60;95.40
1351;DHT22;669;50.206;9.998;2023-06-26T03:12:47;14.60;95.30
1351;DHT22;669;50.206;9.998;2023-06-26T03:15:15;14.70;96.10
1351;DHT22;669;50.206;9.998;2023-06-26T03:17:43;14.70;95.30
1351;DHT22;669;50.206;9.998;2023-06-26T03:20:11;14.70;94.90
1351;DHT22;669;50.206;9.998;2023-06-26T03:22:39;14.70;96.00
1351;DHT22;669;50.206;9.998;2023-06-26T03:25:07;14.80;96.00
1351;DHT22;669;50.206;9.998;2023-06-26T03:27:36;14.80;95.60
1351;DHT22;669;50.206;9.998;2023-06-26T03:30:14;14.90;96.00
1351;DHT22;669;50.206;9.998;2023-06-26T03:32:42;14.90;96.00
1351;DHT22;669;50.206;9.998;2023-06-26T03:35:10;14.90;96.20
1351;DHT22;669;50.206;9.998;2023-06-26T03:37:38;14.90;95.40
1351;DHT22;669;50.206;9.998;2023-06-26T03:40:08;14.80;94.30
1351;DHT22;669;50.206;9.998;2023-06-26T03:42:37;14.60;94.30
1351;DHT22;669;50.206;9.998;2023-06-26T03:45:06;14.50;93.70
1351;DHT22;669;50.206;9.998;2023-06-26T03:47:34;14.40;95.30
1351;DHT22;669;50.206;9.998;2023-06-26T03:50:02;14.40;95.20
1351;DHT22;669;50.206;9.998;2023-06-26T03:52:30;14.40;95.30
1351;DHT22;669;50.206;9.998;2023-06-26T03:54:58;14.40;94.90
1351;DHT22;669;50.206;9.998;2023-06-26T03:57:26;14.40;95.80
1351;DHT22;669;50.206;9.998;2023-06-26T03:59:55;14.40;95.70
1351;DHT22;669;50.206;9.998;2023-06-26T04:02:23;14.40;96.20
1351;DHT22;669;50.206;9.998;2023-06-26T04:04:51;14.40;96.20
1351;DHT22;669;50.206;9.998;2023-06-26T04:07:19;14.40;96.70
1351;DHT22;669;50.206;9.998;2023-06-26T04:09:47;14.40;97.20
1351;DHT22;669;50.206;9.998;2023-06-26T04:12:15;14.50;97.80
1351;DHT22;669;50.206;9.998;2023-06-26T04:14:43;14.60;98.40
1351;DHT22;669;50.206;9.998;2023-06-26T04:17:12;14.80;99.40
1351;DHT22;669;50.206;9.998;2023-06-26T04:19:40;15.00;98.50
1351;DHT22;669;50.206;9.998;2023-06-26T04:22:08;15.30;98.80
1351;DHT22;669;50.206;9.998;2023-06-26T04:24:36;15.60;98.40
1351;DHT22;669;50.206;9.998;2023-06-26T04:27:05;15.80;97.80
1351;DHT22;669;50.206;9.998;2023-06-26T04:29:33;16.10;96.90
1351;DHT22;669;50.206;9.998;2023-06-26T04:32:00;16.20;96.50
1351;DHT22;669;50.206;9.998;2023-06-26T04:34:30;16.30;97.00
1351;DHT22;669;50.206;9.998;2023-06-26T04:36:59;16.50;96.40
1351;DHT22;669;50.206;9.998;2023-06-26T04:39:27;16.60;96.30
1351;DHT22;669;50.206;9.998;2023-06-26T04:41:55;16.70;96.30
1351;DHT22;669;50.206;9.998;2023-06-26T04:44:23;16.90;95.50
1351;DHT22;669;50.206;9.998;2023-06-26T04:46:51;17.00;95.50
1351;DHT22;669;50.206;9.998;2023-06-26T04:49:19;17.20;95.20
1351;DHT22;669;50.206;9.998;2023-06-26T04:51:48;17.30;94.90
1351;DHT22;669;50.206;9.998;2023-06-26T04:54:17;17.40;93.50
1351;DHT22;669;50.206;9.998;2023-06-26T04:56:45;17.60;93.50
1351;DHT22;669;50.206;9.998;2023-06-26T04:59:14;17.80;92.80
1351;DHT22;669;50.206;9.998;2023-06-26T05:01:42;18.00;92.80
1351;DHT22;669;50.206;9.998;2023-06-26T05:04:15;18.20;91.90
1351;DHT22;669;50.206;9.998;2023-06-26T05:06:43;18.40;92.80
1351;DHT22;669;50.206;9.998;2023-06-26T05:09:12;18.80;91.40
1351;DHT22;669;50.206;9.998;2023-06-26T05:11:40;19.20;90.50
1351;DHT22;669;50.206;9.998;2023-06-26T05:14:08;19.70;88.30
1351;DHT22;669;50.206;9.998;2023-06-26T05:16:36;20.00;82.00
1351;DHT22;669;50.206;9.998;2023-06-26T05:19:04;20.30;80.60
1351;DHT22;669;50.206;9.998;2023-06-26T05:21:32;20.60;75.00
1351;DHT22;669;50.206;9.998;2023-06-26T05:24:02;20.90;73.80
1351;DHT22;669;50.206;9.998;2023-06-26T05:26:33;21.10;71.20
1351;DHT22;669;50.206;9.998;2023-06-26T05:29:01;21.50;70.50
1351;DHT22;669;50.206;9.998;2023-06-26T05:31:31;21.70;68.80
1351;DHT22;669;50.206;9.998;2023-06-26T05:34:03;22.00;67.70
1351;DHT22;669;50.206;9.998;2023-06-26T05:36:31;22.30;67.10
1351;DHT22;669;50.206;9.998;2023-06-26T05:39:01;22.60;66.60
1351;DHT22;669;50.206;9.998;2023-06-26T05:41:31;22.80;62.80
1351;DHT22;669;50.206;9.998;2023-06-26T05:43:59;23.10;61.10
1351;DHT22;669;50.206;9.998;2023-06-26T05:46:27;23.30;59.00
1351;DHT22;669;50.206;9.998;2023-06-26T05:48:55;23.50;59.50
1351;DHT22;669;50.206;9.998;2023-06-26T05:51:23;23.70;58.40
1351;DHT22;669;50.206;9.998;2023-06-26T05:53:52;23.80;57.80
1351;DHT22;669;50.206;9.998;2023-06-26T05:56:20;23.90;58.50
1351;DHT22;669;50.206;9.998;2023-06-26T05:58:50;24.10;57.90
1351;DHT22;669;50.206;9.998;2023-06-26T06:01:19;24.30;57.80
1351;DHT22;669;50.206;9.998;2023-06-26T06:03:47;24.40;55.80
1351;DHT22;669;50.206;9.998;2023-06-26T06:06:15;24.70;58.50
1351;DHT22;669;50.206;9.998;2023-06-26T06:08:43;24.90;56.30
1351;DHT22;669;50.206;9.998;2023-06-26T06:11:15;25.20;54.30
1351;DHT22;669;50.206;9.998;2023-06-26T06:13:43;25.40;56.40
1351;DHT22;669;50.206;9.998;2023-06-26T06:16:12;25.60;54.00
1351;DHT22;669;50.206;9.998;2023-06-26T06:18:40;25.80;49.70
1351;DHT22;669;50.206;9.998;2023-06-26T06:21:08;25.90;54.30
1351;DHT22;669;50.206;9.998;2023-06-26T06:23:36;26.10;49.30
1351;DHT22;669;50.206;9.998;2023-06-26T06:26:05;26.40;48.40
1351;DHT22;669;50.206;9.998;2023-06-26T06:28:32;26.60;47.10
1351;DHT22;669;50.206;9.998;2023-06-26T06:31:00;26.80;44.90
1351;DHT22;669;50.206;9.998;2023-06-26T06:33:30;27.00;41.20
1351;DHT22;669;50.206;9.998;2023-06-26T06:35:58;27.10;41.50
1351;DHT22;669;50.206;9.998;2023-06-26T06:38:26;27.40;36.30
1351;DHT22;669;50.206;9.998;2023-06-26T06:40:54;27.50;30.20
1351;DHT22;669;50.206;9.998;2023-06-26T06:43:22;27.70;29.90
1351;DHT22;669;50.206;9.998;2023-06-26T06:45:50;27.70;31.30
1351;DHT22;669;50.206;9.998;2023-06-26T06:48:18;27.80;28.80
1351;DHT22;669;50.206;9.998;2023-06-26T06:50:47;28.10;29.00
1351;DHT22;669;50.206;9.998;2023-06-26T06:53:16;28.10;29.20
1351;DHT22;669;50.206;9.998;2023-06-26T06:55:44;28.20;29.10
1351;DHT22;669;50.206;9.998;2023-06-26T06:58:12;28.40;28.70
1351;DHT22;669;50.206;9.998;2023-06-26T07:00:40;28.50;26.60
1351;DHT22;669;50.206;9.998;2023-06-26T07:03:07;28.60;29.10
1351;DHT22;669;50.206;9.998;2023-06-26T07:05:37;28.50;27.60
1351;DHT22;669;50.206;9.998;2023-06-26T07:08:06;28.60;28.90
1351;DHT22;669;50.206;9.998;2023-06-26T07:10:34;28.70;27.80
1351;DHT22;669;50.206;9.998;2023-06-26T07:13:03;28.80;27.50
1351;DHT22;669;50.206;9.998;2023-06-26T07:15:31;29.00;26.70
1351;DHT22;669;50.206;9.998;2023-06-26T07:17:59;29.20;24.00
1351;DHT22;669;50.206;9.998;2023-06-26T07:20:27;29.30;25.90
1351;DHT22;669;50.206;9.998;2023-06-26T07:22:55;29.50;25.50
1351;DHT22;669;50.206;9.998;2023-06-26T07:25:24;29.50;25.00
1351;DHT22;669;50.206;9.998;2023-06-26T07:27:52;29.50;25.00
1351;DHT22;669;50.206;9.998;2023-06-26T07:30:20;29.50;24.60
1351;DHT22;669;50.206;9.998;2023-06-26T07:32:48;29.50;24.60
1351;DHT22;669;50.206;9.998;2023-06-26T07:35:16;29.40;22.30
1351;DHT22;669;50.206;9.998;2023-06-26T07:37:44;29.40;24.60
1351;DHT22;669;50.206;9.998;2023-06-26T07:40:12;29.40;23.80
1351;DHT22;669;50.206;9.998;2023-06-26T07:42:42;29.70;22.60
1351;DHT22;669;50.206;9.998;2023-06-26T07:45:10;29.70;24.50
1351;DHT22;669;50.206;9.998;2023-06-26T07:47:39;29.70;25.10
1351;DHT22;669;50.206;9.998;2023-06-26T07:50:08;29.50;24.90
1351;DHT22;669;50.206;9.998;2023-06-26T07:52:36;29.70;26.00
1351;DHT22;669;50.206;9.998;2023-06-26T07:55:05;29.90;24.30
1351;DHT22;669;50.206;9.998;2023-06-26T07:57:33;29.80;23.90
1351;DHT22;669;50.206;9.998;2023-06-26T08:00:03;29.80;23.90
1351;DHT22;669;50.206;9.998;2023-06-26T08:02:33;29.80;24.80
1351;DHT22;669;50.206;9.998;2023-06-26T08:05:01;30.00;23.20
1351;DHT22;669;50.206;9.998;2023-06-26T08:07:29;30.20;22.90
1351;DHT22;669;50.206;9.998;2023-06-26T08:09:57;30.60;20.70
1351;DHT22;669;50.206;9.998;2023-06-26T08:12:25;30.60;21.10
1351;DHT22;669;50.206;9.998;2023-06-26T08:14:53;30.50;20.60
1351;DHT22;669;50.206;9.998;2023-06-26T08:17:22;30.50;20.60
1351;DHT22;669;50.206;9.998;2023-06-26T08:19:50;30.70;20.70
1351;DHT22;669;50.206;9.998;2023-06-26T08:22:18;31.00;20.90
1351;DHT22;669;50.206;9.998;2023-06-26T08:24:46;31.30;21.00
1351;DHT22;669;50.206;9.998;2023-06-26T08:27:14;31.40;19.70
1351;DHT22;669;50.206;9.998;2023-06-26T08:29:42;31.60;18.10
1351;DHT22;669;50.206;9.998;2023-06-26T08:32:10;31.50;19.00
1351;DHT22;669;50.206;9.998;2023-06-26T08:34:39;31.60;19.90
1351;DHT22;669;50.206;9.998;2023-06-26T08:37:07;31.70;20.60
1351;DHT22;669;50.206;9.998;2023-06-26T08:39:36;31.80;18.80
1351;DHT22;669;50.206;9.998;2023-06-26T08:42:04;31.70;20.00
1351;DHT22;669;50.206;9.998;2023-06-26T08:44:32;31.90;19.50
1351;DHT22;669;50.206;9.998;2023-06-26T08:47:03;31.90;21.30
1351;DHT22;669;50.206;9.998;2023-06-26T08:49:42;32.30;19.00
1351;DHT22;669;50.206;9.998;2023-06-26T08:52:17;32.50;17.90
1351;DHT22;669;50.206;9.998;2023-06-26T08:54:46;32.60;17.50
1351;DHT22;669;50.206;9.998;2023-06-26T08:57:18;32.90;17.40
1351;DHT22;669;50.206;9.998;2023-06-26T08:59:47;33.00;17.10
1351;DHT22;669;50.206;9.998;2023-06-26T09:02:15;33.30;15.60
1351;DHT22;669;50.206;9.998;2023-06-26T09:04:45;33.50;16.10
1351;DHT22;669;50.206;9.998;2023-06-26T09:07:12;33.50;16.30
1351;DHT22;669;50.206;9.998;2023-06-26T09:09:41;33.60;15.10
1351;DHT22;669;50.206;9.998;2023-06-26T09:12:09;33.60;14.50
1351;DHT22;669;50.206;9.998;2023-06-26T09:14:38;33.60;15.10
1351;DHT22;669;50.206;9.998;2023-06-26T09:17:06;33.70;13.90
1351;DHT22;669;50.206;9.998;2023-06-26T09:19:36;33.90;14.00
1351;DHT22;669;50.206;9.998;2023-06-26T09:22:11;33.80;14.70
1351;DHT22;669;50.206;9.998;2023-06-26T09:24:41;33.90;10.20
1351;DHT22;669;50.206;9.998;2023-06-26T09:27:09;33.80;11.50
1351;DHT22;669;50.206;9.998;2023-06-26T09:29:37;33.90;11.30
1351;DHT22;669;50.206;9.998;2023-06-26T09:32:08;33.80;9.50
1351;DHT22;669;50.206;9.998;2023-06-26T09:34:36;33.70;11.60
1351;DHT22;669;50.206;9.998;2023-06-26T09:37:05;33.70;10.60
1351;DHT22;669;50.206;9.998;2023-06-26T09:39:33;33.50;12.30
1351;DHT22;669;50.206;9.998;2023-06-26T09:42:01;33.50;11.20
1351;DHT22;669;50.206;9.998;2023-06-26T09:44:33;33.50;12.50
1351;DHT22;669;50.206;9.998;2023-06-26T09:47:02;33.60;11.80
1351;DHT22;669;50.206;9.998;2023-06-26T09:49:31;33.70;10.70
1351;DHT22;669;50.206;9.998;2023-06-26T09:52:00;33.90;11.30
1351;DHT22;669;50.206;9.998;2023-06-26T09:54:30;34.10;11.10
1351;DHT22;669;50.206;9.998;2023-06-26T09:57:07;34.10;10.70
1351;DHT22;669;50.206;9.998;2023-06-26T09:59:35;34.10;11.70
1351;DHT22;669;50.206;9.998;2023-06-26T10:02:04;34.50;9.60
1351;DHT22;669;50.206;9.998;2023-06-26T10:04:32;34.50;11.00
1351;DHT22;669;50.206;9.998;2023-06-26T10:07:02;34.50;8.90
1351;DHT22;669;50.206;9.998;2023-06-26T10:09:36;34.30;10.60
1351;DHT22;669;50.206;9.998;2023-06-26T10:12:09;34.10;11.00
1351;DHT22;669;50.206;9.998;2023-06-26T10:14:39;34.40;9.50
1351;DHT22;669;50.206;9.998;2023-06-26T10:17:17;34.70;9.70
1351;DHT22;669;50.206;9.998;2023-06-26T10:19:48;34.70;10.30
1351;DHT22;669;50.206;9.998;2023-06-26T10:22:20;34.80;8.90
1351;DHT22;669;50.206;9.998;2023-06-26T10:24:51;34.60;9.20
1351;DHT22;669;50.206;9.998;2023-06-26T10:27:21;34.70;9.50
1351;DHT22;669;50.206;9.998;2023-06-26T10:29:51;34.70;8.70
1351;DHT22;669;50.206;9.998;2023-06-26T10:32:22;34.70;9.30
1351;DHT22;669;50.206;9.998;2023-06-26T10:34:51;34.80;8.70
1351;DHT22;669;50.206;9.998;2023-06-26T10:37:20;34.80;9.60
1351;DHT22;669;50.206;9.998;2023-06-26T10:39:50;34.90;8.20
1351;DHT22;669;50.206;9.998;2023-06-26T10:42:20;35.00;8.50
1351;DHT22;669;50.206;9.998;2023-06-26T10:45:09;35.10;7.90
1351;DHT22;669;50.206;9.998;2023-06-26T10:47:37;35.20;7.10
1351;DHT22;669;50.206;9.998;2023-06-26T10:50:19;35.20;6.20
1351;DHT22;669;50.206;9.998;2023-06-26T10:53:09;34.80;6.80
1351;DHT22;669;50.206;9.998;2023-06-26T10:55:41;34.50;8.60
1351;DHT22;669;50.206;9.998;2023-06-26T10:58:29;34.40;7.90
1351;DHT22;669;50.206;9.998;2023-06-26T11:01:17;34.50;8.30
1351;DHT22;669;50.206;9.998;2023-06-26T11:03:46;34.60;8.50
1351;DHT22;669;50.206;9.998;2023-06-26T11:06:18;34.50;8.00
1351;DHT22;669;50.206;9.998;2023-06-26T11:08:47;33.90;9.90
1351;DHT22;669;50.206;9.998;2023-06-26T11:11:17;33.90;9.60
1351;DHT22;669;50.206;9.998;2023-06-26T11:13:46;34.10;9.90
1351;DHT22;669;50.206;9.998;2023-06-26T11:16:15;34.10;11.00
1351;DHT22;669;50.206;9.998;2023-06-26T11:18:44;34.20;9.90
1351;DHT22;669;50.206;9.998;2023-06-26T11:21:13;34.40;11.00
1351;DHT22;669;50.206;9.998;2023-06-26T11:23:41;34.40;8.90
1351;DHT22;669;50.206;9.998;2023-06-26T11:26:18;34.30;7.30
1351;DHT22;669;50.206;9.998;2023-06-26T11:28:48;33.80;8.10
1351;DHT22;669;50.206;9.998;2023-06-26T11:31:27;33.30;8.20
1351;DHT22;669;50.206;9.998;2023-06-26T11:33:57;33.30;8.40
1351;DHT22;669;50.206;9.998;2023-06-26T11:36:26;33.40;8.80
1351;DHT22;669;50.206;9.998;2023-06-26T11:38:55;33.70;9.40
1351;DHT22;669;50.206;9.998;2023-06-26T11:41:26;33.90;9.80
1351;DHT22;669;50.206;9.998;2023-06-26T11:43:54;34.00;8.70
1351;DHT22;669;50.206;9.998;2023-06-26T11:46:23;33.90;9.10
1351;DHT22;669;50.206;9.998;2023-06-26T11:48:51;34.00;9.80
1351;DHT22;669;50.206;9.998;2023-06-26T11:51:19;34.30;9.40
1351;DHT22;669;50.206;9.998;2023-06-26T11:53:48;34.20;8.30
1351;DHT22;669;50.206;9.998;2023-06-26T11:56:17;33.70;9.10
1351;DHT22;669;50.206;9.998;2023-06-26T11:59:00;33.00;9.70
1351;DHT22;669;50.206;9.998;2023-06-26T12:01:31;32.20;11.70
1351;DHT22;669;50.206;9.998;2023-06-26T12:04:02;31.70;11.70
1351;DHT22;669;50.206;9.998;2023-06-26T12:06:32;31.30;12.70
1351;DHT22;669;50.206;9.998;2023-06-26T12:09:02;31.20;13.10
1351;DHT22;669;50.206;9.998;2023-06-26T12:11:32;31.40;12.10
1351;DHT22;669;50.206;9.998;2023-06-26T12:14:02;31.80;12.20
1351;DHT22;669;50.206;9.998;2023-06-26T12:16:31;32.10;11.50
1351;DHT22;669;50.206;9.998;2023-06-26T12:19:01;32.00;12.60
1351;DHT22;669;50.206;9.998;2023-06-26T12:21:45;32.00;11.90
1351;DHT22;669;50.206;9.998;2023-06-26T12:24:14;31.70;12.00
1351;DHT22;669;50.206;9.998;2023-06-26T12:26:44;31.60;12.80
1351;DHT22;669;50.206;9.998;2023-06-26T12:29:14;31.30;12.70
1351;DHT22;669;50.206;9.998;2023-06-26T12:31:45;31.20;12.60
1351;DHT22;669;50.206;9.998;2023-06-26T12:34:14;30.90;12.50
1351;DHT22;669;50.206;9.998;2023-06-26T12:36:46;30.70;13.10
1351;DHT22;669;50.206;9.998;2023-06-26T12:39:16;30.50;13.70
1351;DHT22;669;50.206;9.998;2023-06-26T12:41:49;30.40;14.70
1351;DHT22;669;50.206;9.998;2023-06-26T12:44:19;30.30;15.00
1351;DHT22;669;50.206;9.998;2023-06-26T12:46:49;30.50;14.30
1351;DHT22;669;50.206;9.998;2023-06-26T12:49:17;30.60;14.20
1351;DHT22;669;50.206;9.998;2023-06-26T12:51:57;30.60;14.90
1351;DHT22;669;50.206;9.998;2023-06-26T12:54:25;31.10;14.70
1351;DHT22;669;50.206;9.998;2023-06-26T12:56:54;32.00;14.60
1351;DHT22;669;50.206;9.998;2023-06-26T12:59:23;32.60;13.40
1351;DHT22;669;50.206;9.998;2023-06-26T13:01:51;33.20;12.30
1351;DHT22;669;50.206;9.998;2023-06-26T13:04:19;33.60;11.80
1351;DHT22;669;50.206;9.998;2023-06-26T13:06:47;33.60;11.10
1351;DHT22;669;50.206;9.998;2023-06-26T13:09:15;33.20;11.60
1351;DHT22;669;50.206;9.998;2023-06-26T13:11:43;32.80;12.00
1351;DHT22;669;50.206;9.998;2023-06-26T13:14:11;32.10;13.10
1351;DHT22;669;50.206;9.998;2023-06-26T13:16:40;31.60;13.90
1351;DHT22;669;50.206;9.998;2023-06-26T13:19:08;31.00;15.20
1351;DHT22;669;50.206;9.998;2023-06-26T13:21:37;30.80;15.90
1351;DHT22;669;50.206;9.998;2023-06-26T13:24:05;30.60;16.30
1351;DHT22;669;50.206;9.998;2023-06-26T13:26:33;30.40;17.90
1351;DHT22;669;50.206;9.998;2023-06-26T13:29:04;30.10;16.60
1351;DHT22;669;50.206;9.998;2023-06-26T13:31:32;30.00;17.00
1351;DHT22;669;50.206;9.998;2023-06-26T13:34:02;30.00;17.80
1351;DHT22;669;50.206;9.998;2023-06-26T13:36:32;30.10;17.80
1351;DHT22;669;50.206;9.998;2023-06-26T13:39:01;30.30;17.10
1351;DHT22;669;50.206;9.998;2023-06-26T13:41:30;30.40;16.90
1351;DHT22;669;50.206;9.998;2023-06-26T13:43:58;30.30;17.20
1351;DHT22;669;50.206;9.998;2023-06-26T13:46:46;30.10;17.60
1351;DHT22;669;50.206;9.998;2023-06-26T13:49:15;30.10;17.80
1351;DHT22;669;50.206;9.998;2023-06-26T13:51:43;30.00;17.40
1351;DHT22;669;50.206;9.998;2023-06-26T13:54:13;30.00;18.00
1351;DHT22;669;50.206;9.998;2023-06-26T13:56:41;30.00;17.50
1351;DHT22;669;50.206;9.998;2023-06-26T13:59:09;30.10;17.60
1351;DHT22;669;50.206;9.998;2023-06-26T14:01:39;30.40;18.80
1351;DHT22;669;50.206;9.998;2023-06-26T14:04:09;30.70;16.30
1351;DHT22;669;50.206;9.998;2023-06-26T14:06:38;30.80;17.20
1351;DHT22;669;50.206;9.998;2023-06-26T14:09:06;31.00;16.20
1351;DHT22;669;50.206;9.998;2023-06-26T14:11:35;31.10;16.80
1351;DHT22;669;50.206;9.998;2023-06-26T14:14:02;31.30;15.70
1351;DHT22;669;50.206;9.998;2023-06-26T14:16:30;31.50;14.90
1351;DHT22;669;50.206;9.998;2023-06-26T14:18:58;31.30;15.40
1351;DHT22;669;50.206;9.998;2023-06-26T14:21:26;31.00;15.40
1351;DHT22;669;50.206;9.998;2023-06-26T14:23:56;30.60;16.10
1351;DHT22;669;50.206;9.998;2023-06-26T14:26:24;30.40;16.70
1351;DHT22;669;50.206;9.998;2023-06-26T14:28:52;30.30;15.80
1351;DHT22;669;50.206;9.998;2023-06-26T14:31:20;30.10;16.80
1351;DHT22;669;50.206;9.998;2023-06-26T14:33:48;30.00;16.90
1351;DHT22;669;50.206;9.998;2023-06-26T14:36:16;30.00;16.10
1351;DHT22;669;50.206;9.998;2023-06-26T14:38:44;30.00;16.20
1351;DHT22;669;50.206;9.998;2023-06-26T14:41:13;29.90;16.60
1351;DHT22;669;50.206;9.998;2023-06-26T14:43:42;29.80;16.30
1351;DHT22;669;50.206;9.998;2023-06-26T14:46:10;29.70;16.70
1351;DHT22;669;50.206;9.998;2023-06-26T14:48:39;29.50;17.00
1351;DHT22;669;50.206;9.998;2023-06-26T14:51:07;29.40;16.60
1351;DHT22;669;50.206;9.998;2023-06-26T14:53:35;29.30;18.10
1351;DHT22;669;50.206;9.998;2023-06-26T14:56:03;29.10;16.20
1351;DHT22;669;50.206;9.998;2023-06-26T14:58:33;28.90;17.00
1351;DHT22;669;50.206;9.998;2023-06-26T15:01:01;28.90;18.20
1351;DHT22;669;50.206;9.998;2023-06-26T15:03:29;29.10;16.70
1351;DHT22;669;50.206;9.998;2023-06-26T15:05:57;29.20;16.50
1351;DHT22;669;50.206;9.998;2023-06-26T15:08:25;29.20;16.20
1351;DHT22;669;50.206;9.998;2023-06-26T15:10:53;29.20;15.90
1351;DHT22;669;50.206;9.998;2023-06-26T15:13:21;29.30;15.90
1351;DHT22;669;50.206;9.998;2023-06-26T15:15:50;29.20;15.80
1351;DHT22;669;50.206;9.998;2023-06-26T15:18:18;29.10;15.20
1351;DHT22;669;50.206;9.998;2023-06-26T15:20:46;28.90;15.90
1351;DHT22;669;50.206;9.998;2023-06-26T15:23:14;28.60;16.10
1351;DHT22;669;50.206;9.998;2023-06-26T15:25:42;28.30;16.80
1351;DHT22;669;50.206;9.998;2023-06-26T15:28:10;28.00;17.10
1351;DHT22;669;50.206;9.998;2023-06-26T15:30:39;27.80;17.60
1351;DHT22;669;50.206;9.998;2023-06-26T15:33:09;27.80;17.70
1351;DHT22;669;50.206;9.998;2023-06-26T15:35:38;27.70;18.30
1351;DHT22;669;50.206;9.998;2023-06-26T15:38:06;27.60;19.20
1351;DHT22;669;50.206;9.998;2023-06-26T15:40:34;27.60;18.40
1351;DHT22;669;50.206;9.998;2023-06-26T15:43:02;27.60;18.20
1351;DHT22;669;50.206;9.998;2023-06-26T15:45:31;27.70;18.10
1351;DHT22;669;50.206;9.998;2023-06-26T15:47:58;27.70;18.30
1351;DHT22;669;50.206;9.998;2023-06-26T15:50:28;27.60;18.40
1351;DHT22;669;50.206;9.998;2023-06-26T15:52:56;27.60;18.10
1351;DHT22;669;50.206;9.998;2023-06-26T15:55:24;27.60;18.00
1351;DHT22;669;50.206;9.998;2023-06-26T15:57:52;27.60;17.80
1351;DHT22;669;50.206;9.998;2023-06-26T16:00:20;27.50;17.40
1351;DHT22;669;50.206;9.998;2023-06-26T16:02:48;27.20;17.80
1351;DHT22;669;50.206;9.998;2023-06-26T16:05:16;27.10;18.80
1351;DHT22;669;50.206;9.998;2023-06-26T16:07:46;27.10;18.20
1351;DHT22;669;50.206;9.998;2023-06-26T16:10:23;27.00;18.40
1351;DHT22;669;50.206;9.998;2023-06-26T16:12:51;27.00;17.20
1351;DHT22;669;50.206;9.998;2023-06-26T16:15:19;26.90;16.90
1351;DHT22;669;50.206;9.998;2023-06-26T16:17:47;26.90;16.80
1351;DHT22;669;50.206;9.998;2023-06-26T16:20:15;26.80;16.70
1351;DHT22;669;50.206;9.998;2023-06-26T16:22:43;26.70;16.80
1351;DHT22;669;50.206;9.998;2023-06-26T16:25:13;26.60;16.70
1351;DHT22;669;50.206;9.998;2023-06-26T16:27:41;26.60;16.40
1351;DHT22;669;50.206;9.998;2023-06-26T16:30:11;26.50;16.60
1351;DHT22;669;50.206;9.998;2023-06-26T16:32:39;26.50;18.10